createdAt,value
2019-01-11T00:01:45.226Z,57.15
2019-01-11T00:06:51.623Z,57.97
2019-01-11T00:11:58.039Z,59.25
2019-01-11T00:17:07.393Z,58.01
2019-01-11T00:22:14.306Z,59.19
2019-01-11T00:27:20.647Z,57.76
2019-01-11T00:32:28.878Z,57.29
2019-01-11T00:37:35.253Z,57.95
2019-01-11T00:42:43.331Z,58.82
2019-01-11T00:47:51.386Z,59.20
2019-01-11T00:52:57.490Z,59.41
2019-01-11T00:58:03.436Z,58.49
2019-01-11T01:03:09.828Z,57.85
2019-01-11T01:08:15.958Z,57.27
2019-01-11T01:13:22.616Z,56.67
2019-01-11T01:18:28.446Z,56.67
2019-01-11T01:23:36.016Z,56.92
2019-01-11T01:28:42.284Z,57.95
2019-01-11T01:33:48.308Z,58.38
2019-01-11T01:38:54.062Z,58.60
2019-01-11T01:43:59.847Z,58.40
2019-01-11T01:49:06.565Z,59.02
2019-01-11T01:54:14.213Z,58.80
2019-01-11T01:59:20.439Z,59.29
2019-01-11T02:04:26.609Z,58.44
2019-01-11T02:09:34.097Z,58.90
2019-01-11T02:14:41.182Z,58.54
2019-01-11T02:19:48.453Z,59.77
2019-01-11T02:24:57.261Z,59.60
2019-01-11T02:30:04.163Z,60.93
2019-01-11T02:35:10.870Z,60.70
2019-01-11T02:40:19.043Z,60.49
2019-01-11T02:45:26.634Z,61.06
2019-01-11T02:50:32.840Z,60.51
2019-01-11T02:55:41.106Z,60.12
2019-01-11T03:00:48.035Z,59.46
2019-01-11T03:05:54.466Z,60.71
2019-01-11T03:11:02.266Z,59.24
2019-01-11T03:16:08.942Z,59.94
2019-01-11T03:21:15.015Z,59.09
2019-01-11T03:26:21.431Z,59.87
2019-01-11T03:31:29.437Z,59.78
2019-01-11T03:36:36.394Z,60.52
2019-01-11T03:41:44.324Z,61.07
2019-01-11T03:46:50.952Z,60.13
2019-01-11T03:51:59.032Z,59.78
2019-01-11T03:57:05.507Z,60.91
2019-01-11T04:02:12.403Z,60.95
2019-01-11T04:07:20.984Z,61.68
2019-01-11T04:12:27.600Z,61.50
2019-01-11T04:17:34.283Z,61.36
2019-01-11T04:22:42.562Z,62.19
2019-01-11T04:27:50.202Z,62.68
2019-01-11T04:32:57.244Z,62.92
2019-01-11T04:38:04.008Z,63.27
2019-01-11T04:43:10.773Z,63.80
2019-01-11T04:48:17.715Z,63.89
2019-01-11T04:53:24.487Z,64.61
2019-01-11T04:58:31.823Z,64.29
2019-01-11T05:03:39.482Z,64.67
2019-01-11T05:08:45.336Z,65.87
2019-01-11T05:13:52.377Z,64.96
2019-01-11T05:18:58.699Z,64.45
2019-01-11T05:24:05.747Z,64.88
2019-01-11T05:29:12.108Z,65.80
2019-01-11T05:34:18.938Z,65.20
2019-01-11T05:39:25.375Z,66.12
2019-01-11T05:44:32.385Z,64.88
2019-01-11T05:49:38.652Z,64.66
2019-01-11T05:54:44.992Z,66.23
2019-01-11T05:59:52.058Z,65.74
2019-01-11T06:04:59.636Z,65.89
2019-01-11T06:10:12.842Z,66.65
2019-01-11T06:15:19.575Z,65.60
2019-01-11T06:20:30.183Z,65.75
2019-01-11T06:25:35.606Z,65.99
2019-01-11T06:30:43.415Z,65.33
2019-01-11T06:35:49.938Z,65.90
2019-01-11T06:40:56.503Z,67.10
2019-01-11T06:46:03.133Z,67.21
2019-01-11T06:51:09.680Z,65.64
2019-01-11T06:56:16.389Z,65.70
2019-01-11T07:01:23.119Z,65.65
2019-01-11T07:06:30.626Z,65.96
2019-01-11T07:11:37.822Z,66.20
2019-01-11T07:16:44.463Z,66.28
2019-01-11T07:21:51.535Z,66.63
2019-01-11T07:26:57.905Z,67.05
2019-01-11T07:32:04.611Z,66.38
2019-01-11T07:37:12.122Z,65.66
2019-01-11T07:42:20.039Z,65.56
2019-01-11T07:47:27.192Z,65.88
2019-01-11T07:52:34.145Z,67.52
2019-01-11T07:57:41.871Z,67.27
2019-01-11T08:02:51.888Z,66.42
2019-01-11T08:07:58.298Z,65.81
2019-01-11T08:13:06.023Z,65.71
2019-01-11T08:18:12.695Z,65.27
2019-01-11T08:23:19.238Z,66.13
2019-01-11T08:28:26.379Z,66.60
2019-01-11T08:33:32.938Z,65.83
2019-01-11T08:38:39.439Z,65.40
2019-01-11T08:43:46.089Z,65.83
2019-01-11T08:48:52.132Z,66.32
2019-01-11T08:53:58.953Z,66.85
2019-01-11T08:59:05.156Z,67.64
2019-01-11T09:04:12.229Z,68.19
2019-01-11T09:09:18.285Z,67.45
2019-01-11T09:14:29.115Z,68.57
2019-01-11T09:19:35.771Z,67.71
2019-01-11T09:24:43.383Z,68.27
2019-01-11T09:29:50.188Z,69.19
2019-01-11T09:34:56.248Z,68.56
2019-01-11T09:40:02.918Z,68.62
2019-01-11T09:45:11.230Z,69.43
2019-01-11T09:50:21.042Z,69.22
2019-01-11T09:55:27.536Z,68.21
2019-01-11T10:00:34.342Z,68.37
2019-01-11T10:05:43.394Z,68.73
2019-01-11T10:10:50.629Z,68.47
2019-01-11T10:15:58.776Z,68.42
2019-01-11T10:21:04.819Z,69.69
2019-01-11T10:26:12.111Z,68.71
2019-01-11T10:31:18.826Z,69.36
2019-01-11T10:36:25.247Z,69.28
2019-01-11T10:41:32.589Z,68.67
2019-01-11T10:46:40.269Z,69.23
2019-01-11T10:51:47.093Z,67.82
2019-01-11T10:56:52.924Z,69.05
2019-01-11T11:01:59.803Z,68.64
2019-01-11T11:07:05.604Z,67.99
2019-01-11T11:12:11.311Z,68.47
2019-01-11T11:17:17.098Z,69.21
2019-01-11T11:22:23.372Z,68.01
2019-01-11T11:27:29.206Z,68.21
2019-01-11T11:32:36.793Z,67.67
2019-01-11T11:37:43.381Z,67.67
2019-01-11T11:42:49.974Z,68.39
2019-01-11T11:47:56.308Z,68.51
2019-01-11T11:53:02.352Z,66.98
2019-01-11T11:58:08.337Z,69.05
2019-01-11T12:03:14.034Z,68.88
2019-01-11T12:08:20.188Z,68.85
2019-01-11T12:13:26.489Z,68.28
2019-01-11T12:18:32.822Z,69.67
2019-01-11T12:23:38.960Z,70.97
2019-01-11T12:28:45.258Z,70.77
2019-01-11T12:33:51.196Z,70.48
2019-01-11T12:38:56.857Z,70.46
2019-01-11T12:44:02.558Z,70.10
2019-01-11T12:49:08.375Z,69.71
2019-01-11T12:54:15.985Z,71.25
2019-01-11T12:59:23.354Z,71.13
2019-01-11T13:04:30.388Z,70.00
2019-01-11T13:09:38.669Z,70.41
2019-01-11T13:14:44.571Z,71.25
2019-01-11T13:19:50.167Z,71.43
2019-01-11T13:24:55.878Z,71.53
2019-01-11T13:30:01.786Z,70.67
2019-01-11T13:35:08.678Z,70.68
2019-01-11T13:40:19.876Z,71.02
2019-01-11T13:45:26.523Z,71.01
2019-01-11T13:50:37.658Z,70.40
2019-01-11T13:55:43.475Z,71.75
2019-01-11T14:00:49.379Z,70.02
2019-01-11T14:05:55.368Z,71.48
2019-01-11T14:11:01.365Z,71.94
2019-01-11T14:16:07.481Z,71.12
2019-01-11T14:21:13.994Z,71.29
2019-01-11T14:26:19.911Z,70.67
2019-01-11T14:31:25.755Z,71.70
2019-01-11T14:36:31.697Z,71.07
2019-01-11T14:41:37.888Z,70.74
2019-01-11T14:46:43.928Z,71.58
2019-01-11T14:51:50.120Z,71.20
2019-01-11T14:56:56.007Z,69.85
2019-01-11T15:02:02.098Z,71.34
2019-01-11T15:07:07.864Z,71.62
2019-01-11T15:12:14.047Z,70.94
2019-01-11T15:17:21.292Z,70.20
2019-01-11T15:22:31.340Z,71.07
2019-01-11T15:27:36.999Z,70.08
2019-01-11T15:32:43.178Z,70.37
2019-01-11T15:37:48.925Z,71.19
2019-01-11T15:42:55.042Z,71.60
2019-01-11T15:48:00.616Z,70.37
2019-01-11T15:53:06.228Z,69.88
2019-01-11T15:58:12.362Z,70.22
2019-01-11T16:03:18.621Z,70.69
2019-01-11T16:08:24.370Z,70.32
2019-01-11T16:13:29.948Z,70.39
2019-01-11T16:18:35.539Z,70.57
2019-01-11T16:23:41.383Z,69.41
2019-01-11T16:28:47.271Z,69.75
2019-01-11T16:33:52.884Z,69.89
2019-01-11T16:38:59.018Z,69.62
2019-01-11T16:44:06.179Z,71.54
2019-01-11T16:49:11.964Z,71.82
2019-01-11T16:54:18.638Z,70.84
2019-01-11T16:59:24.716Z,70.13
2019-01-11T17:04:30.418Z,69.32
2019-01-11T17:09:36.234Z,70.44
2019-01-11T17:14:43.068Z,70.47
2019-01-11T17:19:49.117Z,70.32
2019-01-11T17:24:55.494Z,71.35
2019-01-11T17:30:01.811Z,69.37
2019-01-11T17:35:07.848Z,69.78
2019-01-11T17:40:13.712Z,70.68
2019-01-11T17:45:20.437Z,70.04
2019-01-11T17:50:26.370Z,70.11
2019-01-11T17:55:33.909Z,69.52
2019-01-11T18:00:41.422Z,69.49
2019-01-11T18:05:48.220Z,68.96
2019-01-11T18:10:54.443Z,68.37
2019-01-11T18:16:00.177Z,68.55
2019-01-11T18:21:08.934Z,67.51
2019-01-11T18:26:15.383Z,68.16
2019-01-11T18:31:24.645Z,66.85
2019-01-11T18:36:32.048Z,66.72
2019-01-11T18:41:37.743Z,66.74
2019-01-11T18:46:43.910Z,65.95
2019-01-11T18:51:51.417Z,67.29
2019-01-11T18:56:59.741Z,67.10
2019-01-11T19:02:06.903Z,66.42
2019-01-11T19:07:13.650Z,67.22
2019-01-11T19:12:20.230Z,67.15
2019-01-11T19:17:27.168Z,66.31
2019-01-11T19:22:32.825Z,66.40
2019-01-11T19:27:39.403Z,67.03
2019-01-11T19:32:45.730Z,66.23
2019-01-11T19:37:51.391Z,68.00
2019-01-11T19:42:57.926Z,67.53
2019-01-11T19:48:04.188Z,67.05
2019-01-11T19:53:10.692Z,68.07
2019-01-11T19:58:17.279Z,66.94
2019-01-11T20:03:22.981Z,66.31
2019-01-11T20:08:30.183Z,66.56
2019-01-11T20:13:35.770Z,66.76
2019-01-11T20:18:42.126Z,66.45
2019-01-11T20:23:48.256Z,67.90
2019-01-11T20:28:54.176Z,66.73
2019-01-11T20:34:00.432Z,67.95
2019-01-11T20:39:08.098Z,67.59
2019-01-11T20:44:15.581Z,66.17
2019-01-11T20:49:24.622Z,67.03
2019-01-11T20:54:31.180Z,66.78
2019-01-11T20:59:36.947Z,66.72
2019-01-11T21:04:42.863Z,65.76
2019-01-11T21:09:49.118Z,66.24
2019-01-11T21:14:58.355Z,65.65
2019-01-11T21:20:05.889Z,66.72
2019-01-11T21:25:15.257Z,66.86
2019-01-11T21:30:23.781Z,67.43
2019-01-11T21:35:30.052Z,66.62
2019-01-11T21:40:36.467Z,66.87
2019-01-11T21:45:42.613Z,66.84
2019-01-11T21:50:48.549Z,67.08
2019-01-11T21:55:54.512Z,66.71
2019-01-11T22:01:00.420Z,66.79
2019-01-11T22:06:06.208Z,65.70
2019-01-11T22:11:12.714Z,65.35
2019-01-11T22:16:18.606Z,65.09
2019-01-11T22:21:25.616Z,65.13
2019-01-11T22:26:31.364Z,64.40
2019-01-11T22:31:37.360Z,64.99
2019-01-11T22:36:43.148Z,64.80
2019-01-11T22:41:49.366Z,64.39
2019-01-11T22:46:55.452Z,64.94
2019-01-11T22:52:02.563Z,64.85
2019-01-11T22:57:08.959Z,63.63
2019-01-11T23:02:17.681Z,64.14
2019-01-11T23:07:26.557Z,63.37
2019-01-11T23:12:35.222Z,64.27
2019-01-11T23:17:46.274Z,64.28
2019-01-11T23:22:52.095Z,63.79
2019-01-11T23:27:58.115Z,63.49
2019-01-11T23:33:04.330Z,64.05
2019-01-11T23:38:11.198Z,62.74
2019-01-11T23:43:16.844Z,63.75
2019-01-11T23:48:22.433Z,63.71
2019-01-11T23:53:29.616Z,64.50
2019-01-11T23:58:35.477Z,64.64
